createdAt,value
2023-04-08T00:01:15.686Z,12.57
2023-04-08T00:03:45.114Z,13.43
2023-04-08T00:06:13.159Z,13.10
2023-04-08T00:08:41.713Z,13.03
2023-04-08T00:11:09.595Z,13.93
2023-04-08T00:13:37.534Z,12.70
2023-04-08T00:16:05.660Z,13.70
2023-04-08T00:18:33.586Z,14.13
2023-04-08T00:21:02.943Z,13.13
2023-04-08T00:23:30.923Z,12.57
2023-04-08T00:25:59.018Z,13.27
2023-04-08T00:28:26.896Z,12.93
2023-04-08T00:30:55.753Z,11.50
2023-04-08T00:33:25.714Z,11.07
2023-04-08T00:35:53.689Z,11.63
2023-04-08T00:38:23.196Z,10.50
2023-04-08T00:40:51.247Z,10.60
2023-04-08T00:43:20.815Z,11.50
2023-04-08T00:45:48.869Z,10.13
2023-04-08T00:48:17.791Z,10.50
2023-04-08T00:50:47.076Z,10.17
2023-04-08T00:53:18.283Z,10.30
2023-04-08T00:55:47.656Z,10.20
2023-04-08T00:58:15.882Z,9.00
2023-04-08T01:00:51.271Z,9.80
2023-04-08T01:03:25.504Z,10.53
2023-04-08T01:06:01.351Z,9.00
2023-04-08T01:08:31.966Z,9.20
2023-04-08T01:11:04.358Z,8.30
2023-04-08T01:13:38.458Z,8.43
2023-04-08T01:16:07.190Z,8.50
2023-04-08T01:18:37.497Z,8.73
2023-04-08T01:21:07.456Z,7.47
2023-04-08T01:23:45.134Z,7.60
2023-04-08T01:26:22.628Z,8.90
2023-04-08T01:28:54.552Z,7.47
2023-04-08T01:31:23.454Z,6.77
2023-04-08T01:33:53.024Z,6.83
2023-04-08T01:36:25.314Z,6.60
2023-04-08T01:38:53.463Z,7.07
2023-04-08T01:41:23.093Z,6.50
2023-04-08T01:43:54.371Z,6.40
2023-04-08T01:46:23.549Z,6.33
2023-04-08T01:48:52.646Z,6.33
2023-04-08T01:51:21.654Z,5.70
2023-04-08T01:53:49.628Z,5.60
2023-04-08T01:56:18.104Z,5.20
2023-04-08T01:58:52.715Z,5.37
2023-04-08T02:01:23.830Z,5.63
2023-04-08T02:03:56.381Z,4.80
2023-04-08T02:06:27.720Z,5.00
2023-04-08T02:08:55.741Z,4.47
2023-04-08T02:11:25.088Z,4.97
2023-04-08T02:13:55.099Z,4.73
2023-04-08T02:16:27.427Z,4.20
2023-04-08T02:18:59.645Z,4.30
2023-04-08T02:21:34.285Z,4.07
2023-04-08T02:24:05.900Z,4.00
2023-04-08T02:26:35.784Z,4.30
2023-04-08T02:29:06.932Z,3.90
2023-04-08T02:31:35.827Z,3.90
2023-04-08T02:34:04.090Z,3.90
2023-04-08T02:36:34.085Z,3.43
2023-04-08T02:39:04.850Z,3.63
2023-04-08T02:41:32.747Z,4.13
2023-04-08T02:44:00.878Z,3.90
2023-04-08T02:46:30.633Z,4.40
2023-04-08T02:48:58.564Z,4.20
2023-04-08T02:51:26.393Z,3.57
2023-04-08T02:53:54.328Z,3.87
2023-04-08T02:56:22.777Z,3.93
2023-04-08T02:58:52.364Z,4.20
2023-04-08T03:01:20.292Z,3.90
2023-04-08T03:03:49.608Z,3.97
2023-04-08T03:06:17.700Z,4.30
2023-04-08T03:08:45.542Z,4.10
2023-04-08T03:11:13.428Z,4.10
2023-04-08T03:13:41.297Z,4.03
2023-04-08T03:16:09.388Z,4.13
2023-04-08T03:18:37.302Z,3.70
2023-04-08T03:21:06.629Z,4.53
2023-04-08T03:23:34.489Z,4.03
2023-04-08T03:26:02.405Z,4.20
2023-04-08T03:28:30.402Z,3.50
2023-04-08T03:30:58.342Z,4.03
2023-04-08T03:33:26.285Z,3.70
2023-04-08T03:35:55.361Z,4.40
2023-04-08T03:38:24.601Z,3.67
2023-04-08T03:40:52.488Z,3.80
2023-04-08T03:43:21.919Z,3.73
2023-04-08T03:45:49.903Z,4.57
2023-04-08T03:48:17.859Z,3.97
2023-04-08T03:50:45.783Z,4.13
2023-04-08T03:53:13.690Z,3.50
2023-04-08T03:55:42.937Z,4.00
2023-04-08T03:58:10.921Z,4.60
2023-04-08T04:00:38.823Z,3.93
2023-04-08T04:03:06.931Z,5.03
2023-04-08T04:05:34.790Z,4.07
2023-04-08T04:08:02.633Z,4.20
2023-04-08T04:10:30.536Z,4.40
2023-04-08T04:12:59.836Z,4.47
2023-04-08T04:15:27.729Z,4.40
2023-04-08T04:17:55.731Z,4.33
2023-04-08T04:20:23.706Z,4.60
2023-04-08T04:22:51.655Z,4.50
2023-04-08T04:25:19.788Z,5.50
2023-04-08T04:27:47.666Z,6.17
2023-04-08T04:30:20.607Z,4.40
2023-04-08T04:32:48.491Z,3.90
2023-04-08T04:35:16.513Z,4.90
2023-04-08T04:37:44.428Z,4.57
2023-04-08T04:40:12.763Z,4.57
2023-04-08T04:42:40.823Z,4.90
2023-04-08T04:45:10.484Z,10.10
2023-04-08T04:47:39.769Z,6.40
2023-04-08T04:50:08.718Z,4.83
2023-04-08T04:52:37.180Z,4.30
2023-04-08T04:55:05.731Z,5.20
2023-04-08T04:57:33.683Z,4.47
2023-04-08T05:00:03.841Z,4.80
2023-04-08T05:02:33.263Z,5.13
2023-04-08T05:05:02.792Z,5.30
2023-04-08T05:07:30.843Z,4.63
2023-04-08T05:09:58.682Z,4.50
2023-04-08T05:12:28.178Z,4.83
2023-04-08T05:14:56.063Z,5.30
2023-04-08T05:17:23.960Z,5.30
2023-04-08T05:19:52.029Z,4.00
2023-04-08T05:22:21.376Z,4.40
2023-04-08T05:24:49.322Z,4.43
2023-04-08T05:27:17.132Z,4.40
2023-04-08T05:29:44.952Z,4.57
2023-04-08T05:32:12.774Z,4.33
2023-04-08T05:34:40.690Z,4.83
2023-04-08T05:37:08.564Z,4.80
2023-04-08T05:39:37.823Z,4.87
2023-04-08T05:42:05.684Z,4.60
2023-04-08T05:44:33.614Z,5.57
2023-04-08T05:47:01.527Z,5.20
2023-04-08T05:49:29.433Z,5.70
2023-04-08T05:51:57.298Z,5.20
2023-04-08T05:54:25.270Z,5.63
2023-04-08T05:56:54.654Z,5.77
2023-04-08T05:59:22.596Z,5.30
2023-04-08T06:01:50.631Z,5.30
2023-04-08T06:04:18.638Z,5.73
2023-04-08T06:06:46.725Z,6.00
2023-04-08T06:09:14.593Z,6.03
2023-04-08T06:11:42.475Z,5.47
2023-04-08T06:14:11.667Z,6.27
2023-04-08T06:16:39.579Z,6.47
2023-04-08T06:19:07.418Z,5.80
2023-04-08T06:21:35.435Z,5.20
2023-04-08T06:24:03.329Z,5.20
2023-04-08T06:26:31.145Z,5.03
2023-04-08T06:28:58.978Z,5.37
2023-04-08T06:31:28.286Z,5.27
2023-04-08T06:33:56.439Z,5.33
2023-04-08T06:36:24.381Z,5.27
2023-04-08T06:38:52.468Z,4.43
2023-04-08T06:41:20.531Z,5.20
2023-04-08T06:43:49.857Z,5.07
2023-04-08T06:46:17.910Z,4.50
2023-04-08T06:48:47.219Z,4.90
2023-04-08T06:51:15.797Z,4.97
2023-04-08T06:53:43.635Z,4.83
2023-04-08T06:56:11.511Z,4.97
2023-04-08T06:58:40.011Z,5.67
2023-04-08T07:01:07.846Z,5.00
2023-04-08T07:03:35.881Z,5.70
2023-04-08T07:06:06.156Z,4.97
2023-04-08T07:08:34.018Z,5.03
2023-04-08T07:11:02.551Z,5.77
2023-04-08T07:13:30.905Z,7.80
2023-04-08T07:15:58.799Z,5.60
2023-04-08T07:18:26.708Z,5.43
2023-04-08T07:20:55.067Z,5.30
2023-04-08T07:23:24.620Z,5.50
2023-04-08T07:25:52.548Z,5.43
2023-04-08T07:28:20.788Z,14.67
2023-04-08T07:30:48.685Z,9.63
2023-04-08T07:33:16.685Z,5.67
2023-04-08T07:35:44.629Z,5.50
2023-04-08T07:38:13.456Z,5.67
2023-04-08T07:40:42.679Z,6.20
2023-04-08T07:43:10.569Z,5.70
2023-04-08T07:45:38.481Z,6.23
2023-04-08T07:48:06.708Z,5.80
2023-04-08T07:50:34.583Z,5.90
2023-04-08T07:53:23.837Z,6.87
2023-04-08T07:55:53.307Z,5.70
2023-04-08T07:58:21.199Z,6.53
2023-04-08T08:00:49.195Z,6.63
2023-04-08T08:03:17.146Z,6.20
2023-04-08T08:05:45.075Z,5.63
2023-04-08T08:08:12.935Z,5.83
2023-04-08T08:10:40.922Z,5.90
2023-04-08T08:13:10.370Z,5.50
2023-04-08T08:15:38.223Z,6.37
2023-04-08T08:18:06.176Z,5.60
2023-04-08T08:20:34.041Z,5.77
2023-04-08T08:23:01.903Z,7.43
2023-04-08T08:25:29.839Z,7.30
2023-04-08T08:27:57.711Z,6.50
2023-04-08T08:30:27.642Z,6.60
2023-04-08T08:32:56.606Z,6.77
2023-04-08T08:35:24.555Z,6.40
2023-04-08T08:37:52.426Z,7.27
2023-04-08T08:40:20.463Z,7.50
2023-04-08T08:42:52.167Z,7.10
2023-04-08T08:45:20.860Z,6.37
2023-04-08T08:47:51.572Z,6.87
2023-04-08T08:50:19.677Z,6.60
2023-04-08T08:52:49.868Z,6.90
2023-04-08T08:55:36.242Z,6.33
2023-04-08T08:58:08.526Z,6.47
2023-04-08T09:00:38.038Z,10.20
2023-04-08T09:03:19.906Z,11.80
2023-04-08T09:05:55.872Z,8.43
2023-04-08T09:08:28.270Z,7.67
2023-04-08T09:10:56.772Z,7.43
2023-04-08T09:13:25.519Z,7.20
2023-04-08T09:16:04.972Z,7.90
2023-04-08T09:18:34.912Z,6.90
2023-04-08T09:21:03.685Z,7.57
2023-04-08T09:23:44.504Z,8.50
2023-04-08T09:26:13.827Z,7.30
2023-04-08T09:28:43.025Z,7.50
2023-04-08T09:31:21.499Z,7.03
2023-04-08T09:33:51.464Z,7.00
2023-04-08T09:36:19.894Z,7.70
2023-04-08T09:38:48.993Z,7.70
2023-04-08T09:41:18.509Z,7.40
2023-04-08T09:43:50.739Z,7.40
2023-04-08T09:46:20.582Z,6.03
2023-04-08T09:48:59.402Z,6.10
2023-04-08T09:51:33.365Z,6.70
2023-04-08T09:54:04.313Z,8.00
2023-04-08T09:56:40.827Z,6.80
2023-04-08T09:59:13.008Z,6.60
2023-04-08T10:01:47.256Z,7.40
2023-04-08T10:04:21.010Z,7.20
2023-04-08T10:06:53.856Z,7.50
2023-04-08T10:09:23.099Z,7.23
2023-04-08T10:11:51.610Z,6.50
2023-04-08T10:14:22.063Z,6.93
2023-04-08T10:16:50.321Z,7.07
2023-04-08T10:19:40.473Z,7.40
2023-04-08T10:22:41.516Z,7.43
2023-04-08T10:25:33.810Z,7.23
2023-04-08T10:28:03.299Z,8.00
2023-04-08T10:30:41.301Z,7.63
2023-04-08T10:33:12.405Z,7.77
2023-04-08T10:35:46.233Z,7.00
2023-04-08T10:38:14.907Z,7.80
2023-04-08T10:40:44.162Z,8.20
2023-04-08T10:43:13.099Z,8.53
2023-04-08T10:45:42.050Z,8.60
2023-04-08T10:48:14.616Z,7.97
2023-04-08T10:50:44.590Z,7.80
2023-04-08T10:53:12.524Z,6.90
2023-04-08T10:55:40.454Z,7.13
2023-04-08T10:58:09.298Z,7.03
2023-04-08T11:00:38.524Z,7.10
2023-04-08T11:03:08.871Z,7.10
2023-04-08T11:05:38.080Z,7.37
2023-04-08T11:08:07.924Z,7.30
2023-04-08T11:10:38.599Z,7.67
2023-04-08T11:13:09.952Z,6.77
2023-04-08T11:15:38.306Z,7.17
2023-04-08T11:18:07.304Z,7.33
2023-04-08T11:20:37.216Z,7.20
2023-04-08T11:23:05.168Z,6.13
2023-04-08T11:25:34.948Z,7.17
2023-04-08T11:28:03.335Z,7.00
2023-04-08T11:30:31.408Z,6.93
2023-04-08T11:32:59.581Z,7.00
2023-04-08T11:35:30.077Z,7.00
2023-04-08T11:37:58.720Z,6.00
2023-04-08T11:40:27.473Z,7.10
2023-04-08T11:42:56.785Z,6.83
2023-04-08T11:45:24.767Z,7.47
2023-04-08T11:47:53.060Z,7.63
2023-04-08T11:50:24.805Z,7.60
2023-04-08T11:52:55.382Z,8.10
2023-04-08T11:55:25.539Z,8.03
2023-04-08T11:57:54.345Z,7.67
2023-04-08T12:00:27.920Z,7.43
2023-04-08T12:02:56.164Z,7.63
2023-04-08T12:05:24.106Z,7.80
2023-04-08T12:07:51.999Z,9.10
2023-04-08T12:10:20.677Z,9.20
2023-04-08T12:12:48.633Z,8.27
2023-04-08T12:15:16.560Z,7.83
2023-04-08T12:17:45.840Z,7.97
2023-04-08T12:20:14.419Z,8.00
2023-04-08T12:22:42.344Z,11.17
2023-04-08T12:25:10.759Z,22.63
2023-04-08T12:27:38.740Z,24.03
2023-04-08T12:30:07.842Z,21.27
2023-04-08T12:32:35.838Z,14.80
2023-04-08T12:35:06.328Z,17.27
2023-04-08T12:37:34.227Z,11.30
2023-04-08T12:40:02.204Z,13.47
2023-04-08T12:42:30.097Z,11.03
2023-04-08T12:44:57.997Z,10.30
2023-04-08T12:47:26.381Z,9.87
2023-04-08T12:49:54.393Z,10.27
2023-04-08T12:52:24.132Z,9.90
2023-04-08T12:54:52.088Z,10.10
2023-04-08T12:57:19.924Z,10.50
2023-04-08T12:59:47.898Z,10.40
2023-04-08T13:02:15.924Z,8.67
2023-04-08T13:04:43.920Z,10.10
2023-04-08T13:07:11.824Z,9.80
2023-04-08T13:09:41.131Z,9.80
2023-04-08T13:12:08.970Z,10.70
2023-04-08T13:14:37.588Z,18.20
2023-04-08T13:17:05.495Z,16.97
2023-04-08T13:19:33.543Z,18.17
2023-04-08T13:22:01.498Z,14.70
2023-04-08T13:24:29.498Z,12.47
2023-04-08T13:26:59.235Z,12.47
2023-04-08T13:29:27.091Z,13.07
2023-04-08T13:31:54.935Z,10.87
2023-04-08T13:34:22.947Z,10.10
2023-04-08T13:36:50.984Z,11.13
2023-04-08T13:39:18.808Z,10.57
2023-04-08T13:41:46.727Z,10.97
2023-04-08T13:44:17.052Z,11.00
2023-04-08T13:46:45.267Z,10.97
2023-04-08T13:49:13.675Z,10.13
2023-04-08T13:51:41.553Z,10.63
2023-04-08T13:54:09.372Z,10.90
2023-04-08T13:56:37.290Z,10.47
2023-04-08T13:59:05.313Z,11.47
2023-04-08T14:01:34.663Z,13.00
2023-04-08T14:04:02.762Z,12.67
2023-04-08T14:06:31.125Z,12.00
2023-04-08T14:08:59.108Z,11.37
2023-04-08T14:11:26.927Z,12.47
2023-04-08T14:13:54.797Z,15.67
2023-04-08T14:16:22.759Z,15.63
2023-04-08T14:18:52.467Z,22.83
2023-04-08T14:21:20.836Z,15.20
2023-04-08T14:23:48.750Z,11.10
2023-04-08T14:26:16.731Z,10.73
2023-04-08T14:28:44.698Z,12.13
2023-04-08T14:31:13.004Z,11.40
2023-04-08T14:33:41.616Z,12.90
2023-04-08T14:36:11.477Z,13.03
2023-04-08T14:38:39.858Z,11.83
2023-04-08T14:41:07.679Z,10.90
2023-04-08T14:43:35.563Z,10.30
2023-04-08T14:46:03.472Z,10.30
2023-04-08T14:48:31.472Z,10.33
2023-04-08T14:51:00.115Z,10.23
2023-04-08T14:53:29.608Z,10.87
2023-04-08T14:55:57.662Z,11.03
2023-04-08T14:58:25.631Z,11.33
2023-04-08T15:00:53.709Z,9.70
2023-04-08T15:03:22.823Z,10.37
2023-04-08T15:05:57.630Z,12.00
2023-04-08T15:08:25.792Z,10.70
2023-04-08T15:11:01.293Z,11.70
2023-04-08T15:13:29.171Z,11.80
2023-04-08T15:16:06.841Z,11.40
2023-04-08T15:18:35.084Z,10.80
2023-04-08T15:21:05.118Z,10.20
2023-04-08T15:23:33.226Z,10.93
2023-04-08T15:26:02.969Z,10.23
2023-04-08T15:28:31.108Z,10.80
2023-04-08T15:30:59.326Z,10.93
2023-04-08T15:33:33.851Z,11.33
2023-04-08T15:36:04.168Z,10.50
2023-04-08T15:38:35.439Z,10.83
2023-04-08T15:41:20.201Z,10.23
2023-04-08T15:43:49.085Z,10.87
2023-04-08T15:46:19.976Z,10.60
2023-04-08T15:48:48.412Z,10.60
2023-04-08T15:51:16.949Z,10.17
2023-04-08T15:53:44.931Z,11.47
2023-04-08T15:56:14.742Z,10.10
2023-04-08T15:58:44.153Z,12.27
2023-04-08T16:01:12.216Z,11.37
2023-04-08T16:03:41.009Z,10.30
2023-04-08T16:06:28.035Z,11.67
2023-04-08T16:08:56.733Z,10.63
2023-04-08T16:11:25.217Z,11.10
2023-04-08T16:13:55.050Z,11.50
2023-04-08T16:16:38.820Z,11.80
2023-04-08T16:19:07.475Z,9.77
2023-04-08T16:21:36.059Z,10.97
2023-04-08T16:24:08.088Z,9.80
2023-04-08T16:26:36.153Z,11.20
2023-04-08T16:29:07.535Z,10.27
2023-04-08T16:31:35.905Z,11.00
2023-04-08T16:34:04.256Z,11.13
2023-04-08T16:36:32.281Z,10.80
2023-04-08T16:39:00.331Z,11.27
2023-04-08T16:41:28.279Z,11.60
2023-04-08T16:43:56.259Z,11.40
2023-04-08T16:46:25.600Z,10.57
2023-04-08T16:48:53.517Z,9.17
2023-04-08T16:51:21.582Z,10.23
2023-04-08T16:53:49.500Z,10.80
2023-04-08T16:56:17.428Z,12.20
2023-04-08T16:58:45.506Z,10.00
2023-04-08T17:01:14.477Z,10.73
2023-04-08T17:03:44.122Z,10.10
2023-04-08T17:06:14.080Z,11.03
2023-04-08T17:08:43.178Z,10.90
2023-04-08T17:11:12.587Z,11.07
2023-04-08T17:13:41.986Z,10.30
2023-04-08T17:16:13.266Z,10.37
2023-04-08T17:18:41.324Z,10.50
2023-04-08T17:21:10.782Z,10.60
2023-04-08T17:23:38.835Z,11.90
2023-04-08T17:26:07.410Z,11.50
2023-04-08T17:28:35.524Z,10.83
2023-04-08T17:31:03.744Z,11.70
2023-04-08T17:33:32.203Z,11.03
2023-04-08T17:36:00.153Z,13.13
2023-04-08T17:38:29.477Z,13.57
2023-04-08T17:40:57.439Z,12.17
2023-04-08T17:43:25.362Z,11.20
2023-04-08T17:45:53.290Z,12.10
2023-04-08T17:48:21.373Z,11.70
2023-04-08T17:50:49.529Z,10.70
2023-04-08T17:53:17.499Z,10.33
2023-04-08T17:55:46.907Z,11.50
2023-04-08T17:58:15.544Z,11.70
2023-04-08T18:00:43.400Z,11.60
2023-04-08T18:03:11.344Z,11.03
2023-04-08T18:05:39.426Z,11.67
2023-04-08T18:08:07.490Z,32.10
2023-04-08T18:10:35.456Z,42.10
2023-04-08T18:15:35.962Z,20.80
2023-04-08T18:18:04.040Z,14.70
2023-04-08T18:20:35.561Z,12.10
2023-04-08T18:23:04.935Z,11.60
2023-04-08T18:25:34.406Z,12.17
2023-04-08T18:28:03.740Z,12.70
2023-04-08T18:30:31.702Z,12.00
2023-04-08T18:32:59.658Z,13.67
2023-04-08T18:35:27.711Z,14.20
2023-04-08T18:37:56.519Z,13.77
2023-04-08T18:40:25.051Z,14.00
2023-04-08T18:42:53.069Z,13.63
2023-04-08T18:45:22.345Z,14.60
2023-04-08T18:47:50.322Z,15.60
2023-04-08T18:50:18.876Z,13.77
2023-04-08T18:52:47.549Z,13.93
2023-04-08T18:55:15.485Z,14.70
2023-04-08T18:57:44.618Z,14.83
2023-04-08T19:00:13.263Z,13.20
2023-04-08T19:02:42.800Z,14.77
2023-04-08T19:05:10.854Z,15.03
2023-04-08T19:07:38.798Z,13.63
2023-04-08T19:10:08.069Z,15.70
2023-04-08T19:12:36.020Z,14.53
2023-04-08T19:15:04.654Z,15.27
2023-04-08T19:17:32.693Z,14.27
2023-04-08T19:20:03.103Z,14.63
2023-04-08T19:22:31.130Z,14.23
2023-04-08T19:24:59.059Z,13.50
2023-04-08T19:27:27.069Z,14.10
2023-04-08T19:29:54.939Z,14.90
2023-04-08T19:32:22.844Z,14.90
2023-04-08T19:34:50.963Z,15.53
2023-04-08T19:37:20.287Z,16.57
2023-04-08T19:39:48.204Z,17.33
2023-04-08T19:42:16.377Z,21.00
2023-04-08T19:44:44.367Z,23.03
2023-04-08T19:47:12.454Z,22.80
2023-04-08T19:49:40.516Z,20.63
2023-04-08T19:52:08.484Z,18.20
2023-04-08T19:54:37.823Z,18.53
2023-04-08T19:57:08.134Z,19.27
2023-04-08T19:59:36.077Z,17.17
2023-04-08T20:02:04.447Z,15.30
2023-04-08T20:04:32.917Z,14.90
2023-04-08T20:07:03.686Z,14.40
2023-04-08T20:09:32.640Z,16.80
2023-04-08T20:12:04.813Z,16.03
2023-04-08T20:14:33.821Z,16.63
2023-04-08T20:17:02.162Z,15.73
2023-04-08T20:19:30.438Z,16.30
2023-04-08T20:21:58.453Z,14.67
2023-04-08T20:24:26.387Z,15.77
2023-04-08T20:26:55.267Z,14.50
2023-04-08T20:29:24.811Z,14.07
2023-04-08T20:31:52.855Z,14.80
2023-04-08T20:34:20.932Z,14.23
2023-04-08T20:36:49.000Z,14.67
2023-04-08T20:39:18.082Z,15.10
2023-04-08T20:41:46.539Z,15.10
2023-04-08T20:44:14.542Z,12.63
2023-04-08T20:46:47.029Z,16.70
2023-04-08T20:49:16.468Z,14.50
2023-04-08T20:51:44.397Z,15.67
2023-04-08T20:54:12.418Z,14.73
2023-04-08T20:56:40.820Z,16.00
2023-04-08T20:59:08.917Z,15.70
2023-04-08T21:01:36.989Z,16.03
2023-04-08T21:06:59.074Z,16.50
2023-04-08T21:09:27.424Z,16.17
2023-04-08T21:12:01.524Z,14.97
2023-04-08T21:14:31.019Z,14.70
2023-04-08T21:16:59.261Z,15.00
2023-04-08T21:19:28.621Z,15.60
2023-04-08T21:21:56.682Z,16.60
2023-04-08T21:24:25.013Z,15.53
2023-04-08T21:26:53.027Z,14.63
2023-04-08T21:29:35.306Z,13.40
2023-04-08T21:32:03.435Z,12.70
2023-04-08T21:34:32.845Z,11.87
2023-04-08T21:37:01.059Z,11.50
2023-04-08T21:39:29.079Z,12.30
2023-04-08T21:41:57.645Z,12.20
2023-04-08T21:44:27.979Z,13.80
2023-04-08T21:46:56.146Z,14.30
2023-04-08T21:49:46.100Z,17.07
2023-04-08T21:52:20.264Z,17.07
2023-04-08T21:54:51.491Z,21.27
2023-04-08T21:57:19.840Z,15.53
2023-04-08T21:59:47.854Z,15.03
2023-04-08T22:02:25.097Z,13.40
2023-04-08T22:04:56.467Z,15.00
2023-04-08T22:07:24.397Z,14.87
2023-04-08T22:10:02.916Z,13.00
2023-04-08T22:12:31.535Z,14.07
2023-04-08T22:14:59.578Z,14.80
2023-04-08T22:17:27.580Z,13.40
2023-04-08T22:19:56.901Z,13.80
2023-04-08T22:22:24.784Z,13.00
2023-04-08T22:24:52.779Z,13.63
2023-04-08T22:27:20.713Z,13.30
2023-04-08T22:29:48.806Z,14.27
2023-04-08T22:32:27.151Z,13.97
2023-04-08T22:34:56.957Z,14.17
2023-04-08T22:37:24.980Z,13.30
2023-04-08T22:39:52.971Z,15.07
2023-04-08T22:42:21.075Z,14.53
2023-04-08T22:44:48.992Z,14.60
2023-04-08T22:47:18.222Z,14.50
2023-04-08T22:49:46.376Z,13.67
2023-04-08T22:52:15.647Z,13.97
2023-04-08T22:54:51.360Z,13.70
2023-04-08T22:57:19.348Z,14.40
2023-04-08T22:59:53.167Z,14.33
2023-04-08T23:02:21.513Z,14.80
2023-04-08T23:04:53.970Z,14.93
2023-04-08T23:07:23.567Z,13.70
2023-04-08T23:09:51.648Z,12.43
2023-04-08T23:12:19.554Z,12.97
2023-04-08T23:14:47.539Z,13.60
2023-04-08T23:17:15.567Z,12.97
2023-04-08T23:19:43.626Z,12.83
2023-04-08T23:22:15.824Z,12.80
2023-04-08T23:24:45.423Z,11.80
2023-04-08T23:27:13.514Z,11.50
2023-04-08T23:29:41.503Z,12.17
2023-04-08T23:32:20.065Z,11.40
2023-04-08T23:34:49.130Z,11.70
2023-04-08T23:37:17.351Z,10.70
2023-04-08T23:39:46.853Z,10.73
2023-04-08T23:42:15.003Z,10.90
2023-04-08T23:44:43.997Z,11.27
2023-04-08T23:47:11.981Z,10.40
2023-04-08T23:49:39.980Z,10.20
2023-04-08T23:52:07.993Z,10.50
2023-04-08T23:54:57.647Z,10.10
2023-04-08T23:57:28.710Z,10.30
